This is the latest recevied weather packets stored in our database for station/object SQ2ODE-13. If no packets are shown the sender has not sent any weather packets the latest 10 day(s).
| Time | Temp. | Humidity | Pressure | Rain* | Wind** | Luminosity | Snow |
|---|---|---|---|---|---|---|---|
| 1777650946 | 25° C | 12% | 1020.6 hPa | 0 mm | - | - | - |
| 1777649743 | 24.44° C | 13% | 1020.7 hPa | 0 mm | - | - | - |
| 1777649134 | 24.44° C | 15% | 1020.8 hPa | 0 mm | - | - | - |
| 1777644365 | 25° C | 17% | 1021.5 hPa | 0 mm | - | - | - |
| 1777643158 | 23.89° C | 21% | 1021.5 hPa | 0 mm | - | - | - |
| 1777641951 | 23.89° C | 21% | 1021.8 hPa | 0 mm | - | - | - |
| 1777641346 | 22.78° C | 22% | 1021.9 hPa | 0 mm | - | - | - |
| 1777640140 | 23.89° C | 22% | 1022.1 hPa | 0 mm | - | - | - |
| 1777631749 | 20° C | 31% | 1023.1 hPa | 0 mm | - | - | - |
| 1777628731 | 18.89° C | 36% | 1023.4 hPa | 0 mm | - | - | - |
| 1777626317 | 17.22° C | 38% | 1023.5 hPa | 0 mm | - | - | - |
| 1777623359 | 15.56° C | 40% | 1023.6 hPa | 0 mm | - | - | - |
| 1777622760 | 15.56° C | 40% | 1023.7 hPa | 0 mm | - | - | - |
| 1777622152 | 15.56° C | 40% | 1023.7 hPa | 0 mm | - | - | - |
| 1777617925 | 11.67° C | 50% | 1023.7 hPa | 0 mm | - | - | - |
| 1777616719 | 10.56° C | 53% | 1023.7 hPa | 0 mm | - | - | - |
| 1777615571 | 10° C | 54% | 1023.5 hPa | 0 mm | - | - | - |
| 1777607140 | 6.11° C | 62% | 1023.3 hPa | 0 mm | - | - | - |
| 1777599353 | 7.22° C | 54% | 1023.2 hPa | 0 mm | - | - | - |
| 1777593961 | 8.33° C | 51% | 1023.2 hPa | 0 mm | - | - | - |
| 1777590339 | 8.89° C | 48% | 1023.2 hPa | 0 mm | - | - | - |
| 1777588528 | 10° C | 46% | 1023.2 hPa | 0 mm | - | - | - |
| 1777584967 | 10.56° C | 44% | 1023 hPa | 0 mm | - | - | - |
| 1777581948 | 12.22° C | 41% | 1023.1 hPa | 0 mm | - | - | - |
| 1777580780 | 12.22° C | 38% | 1023.2 hPa | 0 mm | - | - | - |
* Rain latest 24 hours (hover to see other rain measurements)
** Current wind speed in m/s (hover to see current wind gust speed)